createdAt,value
2023-02-18T00:01:15.876Z,11.87
2023-02-18T00:04:02.119Z,11.70
2023-02-18T00:06:48.480Z,11.46
2023-02-18T00:09:34.621Z,11.85
2023-02-18T00:12:20.875Z,11.68
2023-02-18T00:15:07.921Z,11.37
2023-02-18T00:17:54.160Z,11.56
2023-02-18T00:20:40.389Z,11.56
2023-02-18T00:23:27.064Z,11.50
2023-02-18T00:26:15.285Z,11.60
2023-02-18T00:29:02.468Z,11.78
2023-02-18T00:31:48.943Z,11.53
2023-02-18T00:34:35.818Z,11.65
2023-02-18T00:37:23.502Z,11.75
2023-02-18T00:40:10.649Z,11.76
2023-02-18T00:42:57.139Z,11.88
2023-02-18T00:45:43.589Z,11.82
2023-02-18T00:48:29.808Z,11.95
2023-02-18T00:51:16.644Z,11.84
2023-02-18T00:54:02.802Z,11.78
2023-02-18T00:56:49.437Z,11.64
2023-02-18T00:59:35.773Z,11.79
2023-02-18T01:02:21.895Z,11.79
2023-02-18T01:05:08.416Z,11.85
2023-02-18T01:07:55.191Z,11.86
2023-02-18T01:10:44.781Z,11.96
2023-02-18T01:13:31.616Z,11.91
2023-02-18T01:16:19.398Z,11.72
2023-02-18T01:19:06.127Z,11.79
2023-02-18T01:21:52.351Z,11.70
2023-02-18T01:24:38.671Z,11.71
2023-02-18T01:27:24.897Z,11.73
2023-02-18T01:30:15.433Z,11.45
2023-02-18T01:33:02.121Z,11.75
2023-02-18T01:35:48.925Z,11.91
2023-02-18T01:38:35.799Z,11.70
2023-02-18T01:41:22.165Z,11.94
2023-02-18T01:44:15.875Z,12.02
2023-02-18T01:47:04.916Z,11.94
2023-02-18T01:49:53.203Z,11.98
2023-02-18T01:52:39.766Z,11.90
2023-02-18T01:55:27.371Z,11.77
2023-02-18T01:58:14.659Z,11.61
2023-02-18T02:01:01.026Z,11.61
2023-02-18T02:03:47.523Z,11.88
2023-02-18T02:06:34.973Z,11.80
2023-02-18T02:09:23.918Z,11.81
2023-02-18T02:12:43.968Z,11.89
2023-02-18T02:15:49.251Z,11.84
2023-02-18T02:18:48.055Z,11.56
2023-02-18T02:22:07.398Z,11.63
2023-02-18T02:25:15.753Z,11.66
2023-02-18T02:28:37.428Z,11.63
2023-02-18T02:31:39.177Z,11.81
2023-02-18T02:34:46.679Z,11.83
2023-02-18T02:37:59.314Z,11.46
2023-02-18T02:41:00.559Z,11.81
2023-02-18T02:44:01.421Z,11.66
2023-02-18T02:46:52.842Z,11.90
2023-02-18T02:49:50.278Z,11.89
2023-02-18T02:53:02.223Z,11.53
2023-02-18T02:55:48.850Z,11.87
2023-02-18T02:58:38.626Z,11.82
2023-02-18T03:01:37.821Z,11.94
2023-02-18T03:04:32.665Z,12.00
2023-02-18T03:07:44.376Z,11.85
2023-02-18T03:10:47.722Z,11.82
2023-02-18T03:14:04.654Z,12.02
2023-02-18T03:17:05.575Z,11.79
2023-02-18T03:20:06.141Z,11.97
2023-02-18T03:22:55.631Z,11.98
2023-02-18T03:25:42.491Z,11.75
2023-02-18T03:28:32.231Z,11.85
2023-02-18T03:31:26.218Z,11.75
2023-02-18T03:34:20.848Z,11.71
2023-02-18T03:37:09.851Z,11.90
2023-02-18T03:39:59.823Z,11.32
2023-02-18T03:42:46.876Z,11.65
2023-02-18T03:45:33.425Z,11.59
2023-02-18T03:48:19.935Z,11.65
2023-02-18T03:51:06.064Z,11.64
2023-02-18T03:53:52.555Z,11.68
2023-02-18T03:56:38.708Z,11.75
2023-02-18T03:59:24.960Z,11.67
2023-02-18T04:02:11.150Z,11.54
2023-02-18T04:04:57.651Z,11.60
2023-02-18T04:07:43.966Z,11.71
2023-02-18T04:10:30.555Z,11.81
2023-02-18T04:13:19.912Z,11.69
2023-02-18T04:16:07.041Z,11.66
2023-02-18T04:18:53.813Z,11.57
2023-02-18T04:21:40.142Z,11.84
2023-02-18T04:24:26.317Z,11.65
2023-02-18T04:27:12.848Z,11.91
2023-02-18T04:29:59.656Z,11.96
2023-02-18T04:32:46.248Z,11.75
2023-02-18T04:35:32.572Z,11.83
2023-02-18T04:38:18.726Z,11.80
2023-02-18T04:41:04.907Z,11.92
2023-02-18T04:43:51.465Z,11.68
2023-02-18T04:46:38.011Z,11.89
2023-02-18T04:49:24.237Z,11.78
2023-02-18T04:52:10.448Z,11.93
2023-02-18T04:54:58.038Z,11.79
2023-02-18T04:57:44.218Z,11.58
2023-02-18T05:00:30.540Z,11.80
2023-02-18T05:03:17.167Z,11.98
2023-02-18T05:06:03.676Z,11.78
2023-02-18T05:08:49.987Z,11.82
2023-02-18T05:11:36.539Z,11.76
2023-02-18T05:14:22.839Z,11.95
2023-02-18T05:17:09.393Z,11.95
2023-02-18T05:19:55.771Z,11.84
2023-02-18T05:22:43.011Z,11.73
2023-02-18T05:25:29.503Z,11.81
2023-02-18T05:28:16.074Z,11.79
2023-02-18T05:31:02.719Z,11.67
2023-02-18T05:33:49.438Z,11.76
2023-02-18T05:36:35.475Z,11.69
2023-02-18T05:39:22.114Z,11.70
2023-02-18T05:42:08.488Z,11.45
2023-02-18T05:44:54.944Z,11.90
2023-02-18T05:47:41.272Z,11.68
2023-02-18T05:50:27.712Z,11.70
2023-02-18T05:53:14.483Z,11.83
2023-02-18T05:56:01.853Z,11.64
2023-02-18T05:58:48.047Z,11.87
2023-02-18T06:01:34.286Z,11.69
2023-02-18T06:04:20.704Z,11.69
2023-02-18T06:07:07.016Z,11.77
2023-02-18T06:09:53.898Z,11.88
2023-02-18T06:12:40.419Z,11.79
2023-02-18T06:15:26.609Z,11.64
2023-02-18T06:18:13.009Z,11.75
2023-02-18T06:20:59.295Z,11.84
2023-02-18T06:23:45.514Z,11.72
2023-02-18T06:26:31.974Z,11.66
2023-02-18T06:29:18.332Z,11.85
2023-02-18T06:32:04.732Z,11.77
2023-02-18T06:34:51.314Z,11.78
2023-02-18T06:37:37.578Z,11.81
2023-02-18T06:40:24.024Z,11.94
2023-02-18T06:43:10.377Z,11.95
2023-02-18T06:45:56.999Z,11.94
2023-02-18T06:48:43.171Z,12.17
2023-02-18T06:51:32.697Z,12.12
2023-02-18T06:54:19.323Z,12.09
2023-02-18T06:57:05.791Z,12.01
2023-02-18T06:59:52.996Z,12.19
2023-02-18T07:02:39.513Z,12.04
2023-02-18T07:05:26.012Z,11.88
2023-02-18T07:08:12.576Z,12.17
2023-02-18T07:10:58.910Z,12.10
2023-02-18T07:13:45.116Z,12.01
2023-02-18T07:16:31.467Z,12.03
2023-02-18T07:19:18.297Z,12.05
2023-02-18T07:22:04.996Z,12.31
2023-02-18T07:24:54.905Z,12.36
2023-02-18T07:27:41.615Z,12.38
2023-02-18T07:30:28.014Z,12.47
2023-02-18T07:33:14.702Z,12.41
2023-02-18T07:36:02.048Z,12.54
2023-02-18T07:38:48.542Z,12.65
2023-02-18T07:41:35.036Z,12.44
2023-02-18T07:44:21.215Z,12.62
2023-02-18T07:47:08.937Z,12.75
2023-02-18T07:49:55.495Z,12.72
2023-02-18T07:52:41.793Z,12.71
2023-02-18T07:55:48.025Z,12.87
2023-02-18T07:58:37.181Z,12.81
2023-02-18T08:01:23.518Z,12.62
2023-02-18T08:04:10.039Z,12.69
2023-02-18T08:06:56.565Z,12.85
2023-02-18T08:09:43.136Z,12.69
2023-02-18T08:12:29.693Z,12.54
2023-02-18T08:15:16.451Z,12.78
2023-02-18T08:18:03.236Z,12.84
2023-02-18T08:20:51.758Z,12.85
2023-02-18T08:23:38.556Z,12.79
2023-02-18T08:26:25.513Z,12.91
2023-02-18T08:29:11.836Z,12.79
2023-02-18T08:31:59.531Z,12.84
2023-02-18T08:34:46.188Z,13.03
2023-02-18T08:37:52.685Z,13.12
2023-02-18T08:40:40.833Z,13.20
2023-02-18T08:43:27.050Z,13.23
2023-02-18T08:46:16.529Z,13.32
2023-02-18T08:49:20.886Z,13.10
2023-02-18T08:52:06.961Z,13.37
2023-02-18T08:54:53.327Z,13.21
2023-02-18T08:57:39.761Z,13.32
2023-02-18T09:00:26.384Z,13.32
2023-02-18T09:03:14.661Z,13.31
2023-02-18T09:06:01.705Z,13.37
2023-02-18T09:08:48.340Z,13.38
2023-02-18T09:11:34.678Z,13.56
2023-02-18T09:14:21.434Z,13.55
2023-02-18T09:17:07.660Z,13.68
2023-02-18T09:19:54.320Z,13.53
2023-02-18T09:22:40.785Z,13.59
2023-02-18T09:25:27.074Z,13.59
2023-02-18T09:28:13.552Z,13.64
2023-02-18T09:31:11.910Z,13.46
2023-02-18T09:34:01.848Z,13.71
2023-02-18T09:36:48.264Z,13.48
2023-02-18T09:39:34.866Z,13.41
2023-02-18T09:42:28.138Z,13.60
2023-02-18T09:45:16.499Z,13.51
2023-02-18T09:48:06.217Z,13.23
2023-02-18T09:50:53.706Z,13.67
2023-02-18T09:53:42.404Z,13.52
2023-02-18T09:56:33.720Z,13.51
2023-02-18T09:59:23.194Z,13.50
2023-02-18T10:02:17.426Z,13.68
2023-02-18T10:05:04.875Z,13.58
2023-02-18T10:07:56.444Z,13.47
2023-02-18T10:10:46.416Z,13.71
2023-02-18T10:13:34.741Z,13.60
2023-02-18T10:16:23.299Z,13.76
2023-02-18T10:19:33.138Z,13.73
2023-02-18T10:22:21.432Z,13.73
2023-02-18T10:25:08.735Z,13.65
2023-02-18T10:27:57.360Z,13.89
2023-02-18T10:30:52.762Z,13.60
2023-02-18T10:33:48.038Z,13.85
2023-02-18T10:36:55.894Z,13.83
2023-02-18T10:39:50.992Z,13.74
2023-02-18T10:42:49.705Z,13.74
2023-02-18T10:46:02.146Z,13.73
2023-02-18T10:48:54.557Z,13.80
2023-02-18T10:51:50.260Z,13.46
2023-02-18T10:55:09.315Z,13.88
2023-02-18T10:57:57.204Z,13.44
2023-02-18T11:00:44.800Z,13.85
2023-02-18T11:03:45.918Z,13.77
2023-02-18T11:06:32.472Z,14.00
2023-02-18T11:09:48.055Z,14.06
2023-02-18T11:12:48.008Z,14.04
2023-02-18T11:15:35.600Z,13.82
2023-02-18T11:18:37.847Z,13.73
2023-02-18T11:21:35.851Z,13.65
2023-02-18T11:24:22.057Z,13.26
2023-02-18T11:27:12.492Z,13.45
2023-02-18T11:30:04.019Z,13.33
2023-02-18T11:32:56.880Z,13.50
2023-02-18T11:35:50.242Z,13.53
2023-02-18T11:38:42.066Z,13.58
2023-02-18T11:41:42.415Z,13.44
2023-02-18T11:44:34.293Z,13.57
2023-02-18T11:47:24.057Z,13.69
2023-02-18T11:50:10.414Z,13.62
2023-02-18T11:52:58.994Z,13.47
2023-02-18T11:55:56.267Z,13.25
2023-02-18T11:58:47.999Z,13.41
2023-02-18T12:01:40.559Z,13.55
2023-02-18T12:04:38.933Z,13.59
2023-02-18T12:07:37.627Z,13.54
2023-02-18T12:10:45.908Z,13.48
2023-02-18T12:13:38.071Z,13.38
2023-02-18T12:16:46.564Z,13.34
2023-02-18T12:19:58.955Z,13.12
2023-02-18T12:22:57.593Z,13.35
2023-02-18T12:25:46.658Z,13.29
2023-02-18T12:28:55.607Z,12.85
2023-02-18T12:31:48.030Z,13.23
2023-02-18T12:34:52.911Z,13.20
2023-02-18T12:38:00.668Z,13.20
2023-02-18T12:41:10.336Z,13.23
2023-02-18T12:44:27.510Z,13.06
2023-02-18T12:47:32.466Z,13.14
2023-02-18T12:50:51.395Z,13.16
2023-02-18T12:54:19.349Z,13.14
2023-02-18T12:57:28.815Z,13.17
2023-02-18T13:00:24.572Z,13.18
2023-02-18T13:03:48.450Z,13.15
2023-02-18T13:06:52.811Z,12.88
2023-02-18T13:10:16.989Z,13.14
2023-02-18T13:13:20.447Z,12.94
2023-02-18T13:16:11.838Z,12.96
2023-02-18T13:19:21.688Z,13.22
2023-02-18T13:22:11.860Z,13.26
2023-02-18T13:24:59.706Z,13.35
2023-02-18T13:28:18.590Z,13.40
2023-02-18T13:31:19.336Z,13.42
2023-02-18T13:34:21.484Z,13.20
2023-02-18T13:37:40.818Z,13.34
2023-02-18T13:40:30.537Z,13.31
2023-02-18T13:43:30.338Z,13.26
2023-02-18T13:46:19.841Z,13.07
2023-02-18T13:49:13.491Z,13.38
2023-02-18T13:52:02.826Z,13.24
2023-02-18T13:54:51.761Z,13.24
2023-02-18T13:57:39.178Z,13.37
2023-02-18T14:00:36.423Z,13.34
2023-02-18T14:03:50.383Z,13.20
2023-02-18T14:06:39.067Z,13.47
2023-02-18T14:09:25.605Z,13.58
2023-02-18T14:12:42.514Z,13.59
2023-02-18T14:15:29.964Z,13.55
2023-02-18T14:18:39.423Z,13.59
2023-02-18T14:21:38.188Z,13.89
2023-02-18T14:24:46.744Z,13.87
2023-02-18T14:27:33.577Z,13.55
2023-02-18T14:30:24.771Z,13.75
2023-02-18T14:33:15.877Z,13.64
2023-02-18T14:36:30.440Z,13.75
2023-02-18T14:39:41.311Z,13.77
2023-02-18T14:42:49.243Z,13.68
2023-02-18T14:45:47.667Z,13.64
2023-02-18T14:49:03.180Z,13.42
2023-02-18T14:51:52.086Z,13.40
2023-02-18T14:54:41.347Z,13.23
2023-02-18T14:57:40.859Z,13.24
2023-02-18T15:00:32.236Z,13.34
2023-02-18T15:03:22.215Z,13.54
2023-02-18T15:06:26.587Z,13.59
2023-02-18T15:09:15.107Z,13.61
2023-02-18T15:12:05.551Z,13.51
2023-02-18T15:14:53.700Z,13.28
2023-02-18T15:17:46.136Z,13.13
2023-02-18T15:20:34.922Z,13.22
2023-02-18T15:23:21.493Z,13.07
2023-02-18T15:26:13.199Z,13.15
2023-02-18T15:29:00.896Z,13.13
2023-02-18T15:31:48.857Z,12.89
2023-02-18T15:34:39.520Z,13.08
2023-02-18T15:37:25.696Z,12.88
2023-02-18T15:40:16.679Z,13.10
2023-02-18T15:43:06.113Z,12.92
2023-02-18T15:45:56.010Z,12.96
2023-02-18T15:48:48.203Z,12.75
2023-02-18T15:51:34.659Z,12.61
2023-02-18T15:54:23.131Z,12.87
2023-02-18T15:57:14.541Z,12.89
2023-02-18T16:00:16.085Z,12.81
2023-02-18T16:03:04.252Z,12.65
2023-02-18T16:06:07.000Z,12.54
2023-02-18T16:09:03.736Z,12.46
2023-02-18T16:11:56.979Z,12.51
2023-02-18T16:14:50.148Z,12.33
2023-02-18T16:17:36.623Z,12.42
2023-02-18T16:20:36.360Z,12.46
2023-02-18T16:23:29.974Z,12.43
2023-02-18T16:26:26.636Z,12.32
2023-02-18T16:29:16.501Z,11.99
2023-02-18T16:32:03.572Z,12.19
2023-02-18T16:34:50.159Z,12.03
2023-02-18T16:37:39.497Z,12.07
2023-02-18T16:40:32.588Z,12.08
2023-02-18T16:43:24.918Z,12.06
2023-02-18T16:46:21.713Z,12.00
2023-02-18T16:49:14.074Z,12.01
2023-02-18T16:52:05.679Z,11.97
2023-02-18T16:54:53.441Z,11.87
2023-02-18T16:57:39.705Z,11.86
2023-02-18T17:00:25.998Z,11.72
2023-02-18T17:03:13.274Z,11.79
2023-02-18T17:05:59.898Z,11.60
2023-02-18T17:08:47.193Z,11.77
2023-02-18T17:11:35.383Z,11.53
2023-02-18T17:14:23.466Z,11.41
2023-02-18T17:17:17.872Z,11.64
2023-02-18T17:20:04.676Z,11.37
2023-02-18T17:22:51.393Z,11.37
2023-02-18T17:25:39.974Z,11.33
2023-02-18T17:28:26.521Z,11.40
2023-02-18T17:31:21.184Z,11.42
2023-02-18T17:34:12.389Z,11.39
2023-02-18T17:36:58.969Z,11.19
2023-02-18T17:39:45.204Z,11.06
2023-02-18T17:42:35.442Z,11.22
2023-02-18T17:45:32.740Z,11.35
2023-02-18T17:48:19.597Z,11.37
2023-02-18T17:51:07.592Z,11.30
2023-02-18T17:53:54.265Z,11.14
2023-02-18T17:56:41.659Z,11.18
2023-02-18T17:59:29.856Z,10.84
2023-02-18T18:02:28.473Z,11.06
2023-02-18T18:05:19.967Z,11.22
2023-02-18T18:08:07.549Z,11.21
2023-02-18T18:10:57.140Z,11.14
2023-02-18T18:13:43.905Z,11.01
2023-02-18T18:16:30.087Z,11.07
2023-02-18T18:19:16.546Z,11.01
2023-02-18T18:22:02.996Z,10.82
2023-02-18T18:24:50.250Z,11.00
2023-02-18T18:27:36.601Z,10.80
2023-02-18T18:30:26.063Z,10.87
2023-02-18T18:33:25.152Z,10.82
2023-02-18T18:36:11.629Z,10.79
2023-02-18T18:38:57.961Z,10.50
2023-02-18T18:41:44.049Z,10.68
2023-02-18T18:44:30.412Z,10.67
2023-02-18T18:47:16.876Z,10.77
2023-02-18T18:50:03.150Z,10.66
2023-02-18T18:52:51.803Z,10.88
2023-02-18T18:55:40.717Z,10.67
2023-02-18T18:58:27.147Z,10.77
2023-02-18T19:01:19.541Z,10.78
2023-02-18T19:04:05.781Z,10.51
2023-02-18T19:06:52.400Z,10.58
2023-02-18T19:09:38.906Z,10.47
2023-02-18T19:12:25.180Z,10.19
2023-02-18T19:15:18.532Z,10.25
2023-02-18T19:18:07.053Z,9.74
2023-02-18T19:20:53.839Z,9.62
2023-02-18T19:23:40.829Z,9.54
2023-02-18T19:26:28.039Z,8.94
2023-02-18T19:29:14.620Z,9.09
2023-02-18T19:32:00.903Z,9.08
2023-02-18T19:34:47.285Z,8.79
2023-02-18T19:37:34.868Z,9.28
2023-02-18T19:40:24.121Z,9.28
2023-02-18T19:43:11.490Z,9.03
2023-02-18T19:45:57.804Z,9.06
2023-02-18T19:48:49.401Z,9.01
2023-02-18T19:51:35.717Z,9.00
2023-02-18T19:54:22.258Z,8.82
2023-02-18T19:57:08.436Z,8.89
2023-02-18T19:59:54.758Z,8.91
2023-02-18T20:02:41.856Z,9.01
2023-02-18T20:05:28.156Z,9.01
2023-02-18T20:08:14.604Z,8.84
2023-02-18T20:11:00.767Z,8.82
2023-02-18T20:13:48.490Z,8.83
2023-02-18T20:16:34.676Z,8.68
2023-02-18T20:19:21.711Z,8.89
2023-02-18T20:22:10.281Z,8.97
2023-02-18T20:24:56.561Z,8.91
2023-02-18T20:27:59.559Z,8.78
2023-02-18T20:30:47.287Z,8.85
2023-02-18T20:33:33.837Z,8.78
2023-02-18T20:36:20.151Z,8.43
2023-02-18T20:39:15.600Z,8.62
2023-02-18T20:42:11.157Z,8.29
2023-02-18T20:45:02.081Z,8.61
2023-02-18T20:47:48.652Z,8.44
2023-02-18T20:50:35.048Z,8.59
2023-02-18T20:53:21.329Z,8.40
2023-02-18T20:56:08.477Z,8.52
2023-02-18T20:58:54.943Z,8.40
2023-02-18T21:01:43.256Z,8.44
2023-02-18T21:04:29.568Z,8.32
2023-02-18T21:07:15.783Z,8.34
2023-02-18T21:10:04.042Z,8.23
2023-02-18T21:12:50.301Z,8.16
2023-02-18T21:15:37.466Z,8.35
2023-02-18T21:18:24.619Z,8.17
2023-02-18T21:21:12.101Z,8.11
2023-02-18T21:23:58.598Z,8.21
2023-02-18T21:26:44.877Z,8.09
2023-02-18T21:29:32.260Z,7.91
2023-02-18T21:32:18.856Z,8.09
2023-02-18T21:35:06.209Z,8.14
2023-02-18T21:37:52.762Z,8.26
2023-02-18T21:40:39.055Z,8.21
2023-02-18T21:43:26.636Z,8.22
2023-02-18T21:46:22.558Z,8.12
2023-02-18T21:49:10.783Z,7.95
2023-02-18T21:51:57.638Z,7.93
2023-02-18T21:54:44.573Z,7.98
2023-02-18T21:57:32.154Z,8.12
2023-02-18T22:00:20.753Z,7.84
2023-02-18T22:03:07.670Z,7.82
2023-02-18T22:05:54.273Z,7.77
2023-02-18T22:08:40.482Z,7.82
2023-02-18T22:11:26.907Z,7.91
2023-02-18T22:14:14.972Z,7.91
2023-02-18T22:17:01.344Z,7.67
2023-02-18T22:19:48.746Z,8.08
2023-02-18T22:22:34.987Z,7.81
2023-02-18T22:25:21.385Z,8.09
2023-02-18T22:28:07.594Z,8.07
2023-02-18T22:30:54.048Z,8.03
2023-02-18T22:33:41.277Z,7.60
2023-02-18T22:36:29.346Z,8.01
2023-02-18T22:39:16.444Z,7.73
2023-02-18T22:42:02.919Z,7.80
2023-02-18T22:44:49.378Z,7.93
2023-02-18T22:47:35.711Z,7.77
2023-02-18T22:50:22.432Z,7.77
2023-02-18T22:53:08.755Z,7.67
2023-02-18T22:55:59.677Z,7.71
2023-02-18T22:58:47.875Z,7.69
2023-02-18T23:01:40.092Z,7.45
2023-02-18T23:04:26.584Z,7.69
2023-02-18T23:07:13.078Z,7.73
2023-02-18T23:09:59.307Z,7.73
2023-02-18T23:12:45.691Z,7.71
2023-02-18T23:15:31.965Z,7.53
2023-02-18T23:18:18.227Z,7.68
2023-02-18T23:21:18.407Z,7.73
2023-02-18T23:24:05.255Z,7.74
2023-02-18T23:26:51.638Z,7.71
2023-02-18T23:29:38.203Z,7.80
2023-02-18T23:32:25.854Z,7.86
2023-02-18T23:35:11.999Z,7.63
2023-02-18T23:38:04.408Z,7.84
2023-02-18T23:40:50.972Z,7.61
2023-02-18T23:43:37.451Z,7.65
2023-02-18T23:46:26.475Z,7.60
2023-02-18T23:49:15.438Z,7.78
2023-02-18T23:52:01.920Z,7.72
2023-02-18T23:54:48.348Z,7.75
2023-02-18T23:57:34.961Z,7.67
